Time;durP1;ratioP1;P1;durP2;ratioP2;P2;SDS_P1;SDS_P2;PMS_P1;PMS_P2;Temp;Humidity;BMP_temperature;BMP_pressure;BME280_temperature;BME280_humidity;BME280_pressure;Samples;Min_cycle;Max_cycle;Signal;HPM_P1;HPM_P2
2022/02/21 00:02:18;;;;;;;14.20;5.57;;;11.40;96.70;;;;;;5058928;28;20047;-77
2022/02/21 00:04:46;;;;;;;10.52;5.80;;;11.30;96.70;;;;;;5027962;28;20048;-77
2022/02/21 00:07:15;;;;;;;10.45;5.47;;;11.30;96.70;;;;;;5033571;28;20047;-77
2022/02/21 00:09:44;;;;;;;9.20;5.45;;;11.30;96.70;;;;;;5063487;28;20094;-77
2022/02/21 00:12:12;;;;;;;11.40;5.75;;;11.30;96.70;;;;;;5070542;28;20068;-77
2022/02/21 00:14:40;;;;;;;8.23;4.82;;;11.20;96.70;;;;;;5045441;28;20036;-77
2022/02/21 00:17:08;;;;;;;8.07;5.70;;;11.30;96.70;;;;;;5046681;28;20222;-78
2022/02/21 00:19:36;;;;;;;9.77;5.63;;;11.30;96.70;;;;;;5053413;28;20894;-77
2022/02/21 00:22:05;;;;;;;9.90;5.35;;;11.20;96.70;;;;;;5046926;28;20448;-78
2022/02/21 00:24:35;;;;;;;9.15;5.30;;;11.10;96.70;;;;;;5047581;28;20044;-77
2022/02/21 00:27:03;;;;;;;11.65;5.25;;;11.10;96.70;;;;;;5044597;28;20628;-76
2022/02/21 00:29:31;;;;;;;10.00;5.43;;;11.00;96.70;;;;;;5029242;28;20375;-77
2022/02/21 00:32:00;;;;;;;9.77;5.70;;;11.00;96.70;;;;;;5064884;28;20467;-77
2022/02/21 00:34:28;;;;;;;10.55;5.72;;;11.00;96.70;;;;;;5063677;28;20036;-77
2022/02/21 00:36:57;;;;;;;10.18;5.53;;;10.90;96.70;;;;;;5065444;28;20044;-77
2022/02/21 00:39:25;;;;;;;9.73;6.50;;;10.90;96.70;;;;;;5069165;28;20097;-77
2022/02/21 00:41:54;;;;;;;9.25;5.63;;;10.90;96.70;;;;;;5062135;28;20036;-77
2022/02/21 00:44:23;;;;;;;10.98;7.07;;;10.80;96.70;;;;;;5063624;28;20094;-77
2022/02/21 00:46:51;;;;;;;11.90;6.72;;;10.70;96.70;;;;;;5065241;28;20041;-78
2022/02/21 00:49:19;;;;;;;10.30;6.50;;;10.70;96.70;;;;;;5062195;28;20040;-77
2022/02/21 00:51:47;;;;;;;10.88;5.88;;;10.80;96.70;;;;;;5066963;28;20041;-77
2022/02/21 00:54:15;;;;;;;8.57;6.05;;;10.80;96.70;;;;;;5059879;28;20048;-77
2022/02/21 00:56:43;;;;;;;8.65;5.50;;;10.80;96.70;;;;;;5046173;28;20051;-77
2022/02/21 00:59:13;;;;;;;11.18;5.93;;;10.70;96.70;;;;;;5046363;28;20045;-77
2022/02/21 01:01:41;;;;;;;9.63;5.55;;;10.70;96.70;;;;;;5029525;28;20055;-77
2022/02/21 01:04:10;;;;;;;10.85;5.70;;;10.70;96.70;;;;;;5064396;28;20131;-78
2022/02/21 01:06:38;;;;;;;8.05;5.15;;;10.70;96.70;;;;;;5063861;28;20552;-77
2022/02/21 01:09:06;;;;;;;8.38;5.20;;;10.60;96.70;;;;;;5044732;28;20079;-77
2022/02/21 01:11:35;;;;;;;6.53;4.72;;;10.70;96.70;;;;;;5050460;28;20124;-77
2022/02/21 01:14:03;;;;;;;8.85;4.80;;;10.70;96.70;;;;;;5042038;28;20037;-78
2022/02/21 01:16:33;;;;;;;10.43;5.13;;;10.80;96.70;;;;;;5048466;28;20048;-77
2022/02/21 01:19:03;;;;;;;10.07;5.13;;;10.80;96.70;;;;;;5049022;28;20498;-79
2022/02/21 01:21:32;;;;;;;9.63;5.00;;;10.70;96.70;;;;;;5062225;28;20095;-77
2022/02/21 01:24:00;;;;;;;9.57;5.20;;;10.70;96.70;;;;;;5046593;28;20131;-77
2022/02/21 01:26:29;;;;;;;8.88;5.03;;;10.70;96.70;;;;;;5064764;28;20037;-78
2022/02/21 01:28:58;;;;;;;6.30;4.05;;;10.70;96.70;;;;;;5048627;28;20045;-78
2022/02/21 01:31:26;;;;;;;9.13;4.47;;;10.60;96.70;;;;;;5043406;28;20138;-78
2022/02/21 01:33:55;;;;;;;7.75;4.68;;;10.60;96.70;;;;;;5064842;28;20111;-77
2022/02/21 01:36:23;;;;;;;9.07;4.35;;;10.70;96.70;;;;;;5062688;28;20048;-78
2022/02/21 01:38:51;;;;;;;11.40;4.60;;;10.70;96.70;;;;;;5062651;28;20049;-78
2022/02/21 01:41:19;;;;;;;7.97;4.07;;;10.80;96.70;;;;;;5042800;28;20040;-78
2022/02/21 01:43:47;;;;;;;5.28;3.60;;;10.70;96.70;;;;;;5027122;28;20444;-78
2022/02/21 01:46:16;;;;;;;7.50;4.05;;;10.70;96.70;;;;;;5043995;28;20478;-78
2022/02/21 01:48:44;;;;;;;8.90;4.30;;;10.60;96.70;;;;;;5032599;28;20296;-78
2022/02/21 01:51:13;;;;;;;7.63;3.78;;;10.60;96.70;;;;;;5044009;28;20052;-78
2022/02/21 01:53:42;;;;;;;6.65;4.03;;;10.60;96.70;;;;;;5047503;28;20121;-78
2022/02/21 01:56:10;;;;;;;7.82;3.80;;;10.60;96.70;;;;;;5043075;28;20486;-78
2022/02/21 01:58:38;;;;;;;5.95;3.72;;;10.60;96.70;;;;;;5033963;28;20049;-77
2022/02/21 02:01:06;;;;;;;6.18;3.65;;;10.70;96.70;;;;;;5062606;28;20119;-78
2022/02/21 02:03:34;;;;;;;7.20;3.53;;;10.70;96.70;;;;;;5062249;28;20036;-78
2022/02/21 02:06:03;;;;;;;6.57;4.10;;;10.70;96.70;;;;;;5027925;28;20102;-79
2022/02/21 02:08:33;;;;;;;7.60;4.18;;;10.60;96.70;;;;;;5027016;28;20597;-78
2022/02/21 02:11:01;;;;;;;5.85;3.90;;;10.60;96.70;;;;;;5044869;28;20066;-78
2022/02/21 02:13:29;;;;;;;9.95;4.47;;;10.70;96.70;;;;;;5044419;28;20094;-78
2022/02/21 02:15:58;;;;;;;10.23;4.20;;;10.60;96.70;;;;;;5027030;28;20047;-78
2022/02/21 02:18:26;;;;;;;10.57;4.55;;;10.50;96.70;;;;;;5064696;28;20047;-78
2022/02/21 02:20:54;;;;;;;7.50;4.10;;;10.50;96.70;;;;;;5061039;28;20036;-77
2022/02/21 02:23:24;;;;;;;7.30;3.42;;;10.40;96.70;;;;;;5043864;28;20044;-78
2022/02/21 02:25:52;;;;;;;6.72;3.63;;;10.40;96.70;;;;;;5027938;28;20703;-77
2022/02/21 02:28:20;;;;;;;4.50;2.83;;;10.40;96.70;;;;;;5044376;28;20048;-78
2022/02/21 02:30:48;;;;;;;6.15;3.47;;;10.30;96.70;;;;;;5031338;28;20053;-77
2022/02/21 02:33:18;;;;;;;8.05;3.47;;;10.30;96.70;;;;;;5044132;28;20040;-77
2022/02/21 02:35:46;;;;;;;6.15;3.47;;;10.30;96.70;;;;;;5026913;28;20155;-78
2022/02/21 02:38:14;;;;;;;9.02;3.75;;;10.30;96.70;;;;;;5046933;28;20521;-78
2022/02/21 02:40:44;;;;;;;6.05;3.90;;;10.30;96.70;;;;;;5063224;28;20578;-78
2022/02/21 02:43:14;;;;;;;7.20;4.00;;;10.30;96.70;;;;;;5043683;28;20059;-78
2022/02/21 02:45:43;;;;;;;9.48;3.55;;;10.40;96.70;;;;;;5063108;28;20071;-78
2022/02/21 02:48:12;;;;;;;6.82;3.60;;;10.40;96.70;;;;;;5045067;28;20152;-78
2022/02/21 02:50:40;;;;;;;8.63;3.60;;;10.40;96.70;;;;;;5043510;28;20102;-78
2022/02/21 02:53:08;;;;;;;6.53;3.33;;;10.20;96.70;;;;;;5062959;28;20546;-78
2022/02/21 02:55:36;;;;;;;6.53;3.78;;;10.20;96.70;;;;;;5060455;28;20087;-78
2022/02/21 02:58:05;;;;;;;5.57;3.50;;;10.10;96.70;;;;;;5044014;28;20047;-78
2022/02/21 03:00:35;;;;;;;7.05;4.00;;;10.10;96.70;;;;;;5066132;28;20032;-78
2022/02/21 03:03:03;;;;;;;6.85;3.40;;;10.20;96.70;;;;;;5064178;28;20036;-78
2022/02/21 03:05:31;;;;;;;6.35;3.83;;;10.20;96.70;;;;;;5065141;28;20146;-77
2022/02/21 03:08:02;;;;;;;8.10;3.53;;;10.20;96.70;;;;;;5053671;28;20522;-77
2022/02/21 03:10:30;;;;;;;7.10;3.53;;;10.30;96.70;;;;;;5045160;28;20076;-78
2022/02/21 03:12:58;;;;;;;7.78;3.30;;;10.20;96.70;;;;;;5065818;28;20044;-78
2022/02/21 03:15:28;;;;;;;7.57;3.75;;;10.30;96.70;;;;;;5035186;28;20101;-78
2022/02/21 03:17:56;;;;;;;6.22;3.30;;;10.30;96.70;;;;;;5061713;28;20060;-78
2022/02/21 03:20:24;;;;;;;8.23;3.50;;;10.40;96.70;;;;;;5061667;28;20505;-78
2022/02/21 03:22:53;;;;;;;6.97;3.45;;;10.40;96.70;;;;;;5045405;28;20072;-79
2022/02/21 03:25:21;;;;;;;10.13;4.35;;;10.30;96.70;;;;;;5051163;28;20043;-77
2022/02/21 03:27:49;;;;;;;6.75;3.33;;;10.20;96.70;;;;;;5056430;28;20504;-78
2022/02/21 03:30:17;;;;;;;5.60;3.53;;;10.20;96.70;;;;;;5057157;28;20040;-77
2022/02/21 03:32:47;;;;;;;5.07;3.35;;;10.30;96.70;;;;;;5042025;28;20609;-78
2022/02/21 03:35:15;;;;;;;7.03;4.07;;;10.30;96.70;;;;;;5042454;28;20051;-77
2022/02/21 03:37:43;;;;;;;6.35;3.58;;;10.20;96.70;;;;;;5064554;28;20391;-78
2022/02/21 03:40:12;;;;;;;6.95;4.13;;;10.20;96.70;;;;;;5065377;28;20048;-77
2022/02/21 03:42:42;;;;;;;6.07;3.40;;;10.30;96.70;;;;;;5068810;28;20119;-78
2022/02/21 03:45:11;;;;;;;5.88;3.22;;;10.20;96.70;;;;;;5075526;28;20147;-78
2022/02/21 03:47:40;;;;;;;6.65;3.47;;;10.20;96.70;;;;;;5098339;28;20129;-78
2022/02/21 03:50:10;;;;;;;5.47;3.20;;;10.20;96.70;;;;;;5063468;28;20054;-78
2022/02/21 03:52:38;;;;;;;6.10;3.47;;;10.20;96.70;;;;;;5070609;28;20989;-78
2022/02/21 03:55:07;;;;;;;6.40;3.10;;;10.20;96.70;;;;;;5072805;28;20567;-77
2022/02/21 03:57:35;;;;;;;6.82;2.90;;;10.10;96.70;;;;;;5080863;28;20109;-78
2022/02/21 04:00:06;;;;;;;5.57;3.00;;;10.10;96.70;;;;;;5061195;28;20072;-77
2022/02/21 04:02:41;;;;;;;5.18;2.63;;;10.10;96.70;;;;;;5077667;28;20588;-78
2022/02/21 04:05:14;;;;;;;10.48;3.20;;;10.10;96.70;;;;;;5065720;28;20045;-78
2022/02/21 04:07:42;;;;;;;4.10;2.63;;;10.10;96.70;;;;;;5066354;28;20036;-78
2022/02/21 04:10:11;;;;;;;6.95;3.22;;;10.20;96.70;;;;;;5046861;28;20051;-78
2022/02/21 04:12:39;;;;;;;8.25;3.00;;;10.20;96.70;;;;;;5069488;28;20049;-78
2022/02/21 04:15:09;;;;;;;5.03;2.78;;;10.20;96.70;;;;;;5065318;28;20048;-78
2022/02/21 04:17:41;;;;;;;6.75;2.60;;;10.20;96.70;;;;;;5063736;28;20126;-78
2022/02/21 04:20:13;;;;;;;6.32;2.75;;;10.20;96.70;;;;;;5064389;28;20155;-77
2022/02/21 04:22:42;;;;;;;4.47;2.78;;;10.20;96.70;;;;;;5065075;28;20047;-78
2022/02/21 04:25:11;;;;;;;7.35;3.00;;;10.30;96.70;;;;;;5045921;28;20098;-77
2022/02/21 04:27:41;;;;;;;10.35;3.20;;;10.30;96.70;;;;;;5061448;28;20585;-78
2022/02/21 04:30:11;;;;;;;5.63;2.55;;;10.30;96.70;;;;;;5061658;28;20610;-78
2022/02/21 04:32:40;;;;;;;7.18;3.25;;;10.20;96.70;;;;;;5066567;28;20436;-78
2022/02/21 04:35:10;;;;;;;4.65;2.60;;;10.20;96.70;;;;;;5062485;28;20055;-78
2022/02/21 04:37:38;;;;;;;5.57;3.08;;;10.20;96.70;;;;;;5063174;28;20131;-78
2022/02/21 04:40:09;;;;;;;5.68;2.83;;;10.20;96.70;;;;;;5066286;28;20048;-78
2022/02/21 04:42:38;;;;;;;3.40;2.35;;;10.20;96.70;;;;;;5046520;28;20037;-77
2022/02/21 04:45:07;;;;;;;5.97;2.65;;;10.20;96.70;;;;;;5064992;28;20062;-78
2022/02/21 04:47:36;;;;;;;5.07;2.40;;;10.20;96.70;;;;;;5035479;28;20378;-78
2022/02/21 04:50:06;;;;;;;6.20;2.80;;;10.20;96.70;;;;;;5044499;28;20044;-77
2022/02/21 04:52:37;;;;;;;5.85;2.67;;;10.20;96.70;;;;;;5049603;28;20044;-78
2022/02/21 04:55:07;;;;;;;5.55;2.67;;;10.20;96.70;;;;;;5064613;28;20079;-77
2022/02/21 04:57:35;;;;;;;6.65;2.83;;;10.20;96.70;;;;;;5060888;28;20502;-78
2022/02/21 05:00:07;;;;;;;6.57;2.92;;;10.30;96.70;;;;;;5049780;28;20040;-78
2022/02/21 05:02:35;;;;;;;7.22;3.30;;;10.30;96.70;;;;;;5044837;28;20065;-78
2022/02/21 05:05:04;;;;;;;5.38;2.65;;;10.20;96.70;;;;;;5064742;28;20033;-77
2022/02/21 05:07:32;;;;;;;8.02;3.13;;;10.30;96.70;;;;;;5049210;28;20456;-78
2022/02/21 05:10:02;;;;;;;6.35;2.95;;;10.30;96.70;;;;;;5032608;28;20055;-78
2022/02/21 05:12:31;;;;;;;5.68;2.42;;;10.30;96.70;;;;;;5062735;28;20060;-77
2022/02/21 05:14:59;;;;;;;4.25;2.58;;;10.40;96.70;;;;;;5063676;28;20044;-78
2022/02/21 05:17:27;;;;;;;6.55;2.90;;;10.40;96.70;;;;;;5065093;28;20036;-77
2022/02/21 05:19:55;;;;;;;4.30;2.60;;;10.40;96.70;;;;;;5047272;28;20047;-78
2022/02/21 05:22:28;;;;;;;5.22;2.58;;;10.40;96.70;;;;;;5047600;28;20071;-77
2022/02/21 05:24:56;;;;;;;4.53;2.42;;;10.30;96.70;;;;;;5044346;28;20068;-77
2022/02/21 05:27:26;;;;;;;8.93;2.85;;;10.40;96.70;;;;;;5045677;28;20052;-78
2022/02/21 05:29:54;;;;;;;4.32;2.45;;;10.50;96.70;;;;;;5048157;28;20102;-75
2022/02/21 05:32:25;;;;;;;5.88;2.75;;;10.40;96.70;;;;;;5060694;28;20448;-77
2022/02/21 05:34:53;;;;;;;6.88;3.08;;;10.40;96.70;;;;;;5059795;28;20036;-77
2022/02/21 05:37:21;;;;;;;8.88;2.97;;;10.40;96.70;;;;;;5030392;28;20762;-77
2022/02/21 05:39:50;;;;;;;4.93;2.92;;;10.40;96.70;;;;;;5057666;28;20042;-77
2022/02/21 05:42:18;;;;;;;9.52;3.33;;;10.30;96.70;;;;;;5062858;28;20565;-78
2022/02/21 05:44:48;;;;;;;6.63;3.00;;;10.30;96.70;;;;;;5062924;28;20068;-77
2022/02/21 05:47:16;;;;;;;6.38;3.20;;;10.30;96.70;;;;;;5064884;28;20099;-77
2022/02/21 05:49:44;;;;;;;7.10;3.03;;;10.40;96.70;;;;;;5082105;28;20091;-77
2022/02/21 05:52:12;;;;;;;9.25;2.90;;;10.40;96.70;;;;;;5063957;28;20268;-78
2022/02/21 05:54:41;;;;;;;5.35;3.10;;;10.50;96.70;;;;;;5065193;28;20512;-77
2022/02/21 05:57:12;;;;;;;6.72;3.05;;;10.40;96.70;;;;;;5060069;28;20473;-77
2022/02/21 05:59:40;;;;;;;8.38;2.83;;;10.40;96.70;;;;;;5063022;28;21285;-77
2022/02/21 06:02:11;;;;;;;5.30;2.92;;;10.40;96.70;;;;;;5060489;28;20051;-78
2022/02/21 06:04:39;;;;;;;5.93;3.03;;;10.40;96.70;;;;;;5063240;28;20409;-77
2022/02/21 06:07:07;;;;;;;6.82;3.17;;;10.40;96.70;;;;;;5062367;28;20060;-77
2022/02/21 06:09:36;;;;;;;6.50;2.83;;;10.40;96.70;;;;;;5068532;28;20504;-78
2022/02/21 06:12:05;;;;;;;6.35;2.75;;;10.30;96.70;;;;;;5060982;28;20040;-78
2022/02/21 06:14:33;;;;;;;5.03;2.47;;;10.30;96.70;;;;;;5064924;28;20028;-77
2022/02/21 06:17:01;;;;;;;3.50;2.42;;;10.30;96.70;;;;;;5062587;28;20530;-78
2022/02/21 06:19:31;;;;;;;11.02;3.15;;;10.30;96.70;;;;;;5062935;28;20045;-78
2022/02/21 06:22:01;;;;;;;7.13;3.30;;;10.30;96.70;;;;;;5079295;28;20051;-78
2022/02/21 06:24:29;;;;;;;3.95;2.50;;;10.30;96.70;;;;;;5095053;27;20059;-78
2022/02/21 06:26:57;;;;;;;8.13;3.08;;;10.30;96.70;;;;;;5061879;28;20123;-77
2022/02/21 06:29:25;;;;;;;6.03;3.10;;;10.40;96.70;;;;;;5045131;28;20048;-78
2022/02/21 06:31:54;;;;;;;6.05;2.60;;;10.40;96.70;;;;;;5060070;28;20406;-77
2022/02/21 06:34:22;;;;;;;7.88;2.90;;;10.40;96.70;;;;;;5060235;28;20055;-77
2022/02/21 06:36:52;;;;;;;3.83;2.75;;;10.40;96.70;;;;;;5046088;28;20055;-77
2022/02/21 06:39:21;;;;;;;7.38;3.08;;;10.40;96.70;;;;;;5061280;28;20055;-77
2022/02/21 06:41:50;;;;;;;7.95;3.53;;;10.40;96.70;;;;;;5028622;28;20053;-78
2022/02/21 06:44:20;;;;;;;7.13;3.45;;;10.40;96.70;;;;;;5067042;28;20409;-78
2022/02/21 06:46:48;;;;;;;9.73;3.10;;;10.40;96.70;;;;;;5043650;28;20044;-77
2022/02/21 06:49:16;;;;;;;6.07;2.80;;;10.40;96.70;;;;;;5062183;28;20372;-77
2022/02/21 06:51:44;;;;;;;7.45;3.00;;;10.40;96.70;;;;;;5040959;28;20063;-79
2022/02/21 06:54:14;;;;;;;4.55;3.00;;;10.40;96.70;;;;;;5059678;28;20041;-77
2022/02/21 06:56:42;;;;;;;7.85;2.90;;;10.40;96.70;;;;;;5068449;28;20044;-77
2022/02/21 06:59:10;;;;;;;8.38;3.13;;;10.40;96.70;;;;;;5031975;28;20509;-77
2022/02/21 07:01:38;;;;;;;7.38;3.15;;;10.50;96.70;;;;;;5039720;28;20401;-78
2022/02/21 07:04:06;;;;;;;7.03;2.80;;;10.50;96.70;;;;;;5054962;28;20055;-77
2022/02/21 07:06:35;;;;;;;10.15;3.10;;;10.50;96.70;;;;;;5045486;28;20135;-77
2022/02/21 07:09:04;;;;;;;7.15;2.67;;;10.50;96.70;;;;;;5062233;28;20367;-77
2022/02/21 07:11:34;;;;;;;7.00;3.28;;;10.60;96.70;;;;;;5031346;28;20140;-77
2022/02/21 07:14:02;;;;;;;8.10;3.10;;;10.60;96.70;;;;;;5036309;28;20647;-77
2022/02/21 07:16:31;;;;;;;7.25;2.92;;;10.60;96.70;;;;;;5067867;28;20410;-78
2022/02/21 07:18:59;;;;;;;6.30;3.03;;;10.70;96.70;;;;;;5048131;28;20048;-78
2022/02/21 07:21:27;;;;;;;8.48;3.58;;;10.70;96.70;;;;;;5050745;28;20041;-77
2022/02/21 07:23:55;;;;;;;8.77;4.15;;;10.80;96.70;;;;;;5049608;28;20064;-77
2022/02/21 07:26:24;;;;;;;7.53;3.00;;;10.80;96.70;;;;;;5050850;28;20052;-78
2022/02/21 07:28:54;;;;;;;11.50;3.10;;;10.90;96.70;;;;;;5047181;28;20109;-77
2022/02/21 07:31:24;;;;;;;10.70;3.33;;;10.90;96.70;;;;;;5066479;28;20444;-77
2022/02/21 07:33:52;;;;;;;8.60;3.28;;;10.90;96.70;;;;;;5062346;28;20485;-77
2022/02/21 07:36:20;;;;;;;9.32;3.60;;;10.90;96.70;;;;;;5063731;28;20036;-77
2022/02/21 07:38:48;;;;;;;8.63;3.25;;;10.90;96.70;;;;;;5048720;28;20058;-77
2022/02/21 07:41:16;;;;;;;9.75;4.13;;;10.90;96.70;;;;;;5066152;28;20036;-77
2022/02/21 07:43:44;;;;;;;6.38;4.13;;;11.00;96.70;;;;;;5066565;28;20576;-77
2022/02/21 07:46:14;;;;;;;7.53;3.55;;;11.00;96.70;;;;;;5064402;28;20052;-77
2022/02/21 07:48:42;;;;;;;9.57;4.47;;;11.00;96.70;;;;;;5064951;28;20247;-77
2022/02/21 07:51:11;;;;;;;9.02;4.63;;;11.00;96.70;;;;;;5048401;28;20310;-78
2022/02/21 07:53:40;;;;;;;8.20;3.83;;;11.00;96.70;;;;;;5063683;28;20364;-77
2022/02/21 07:56:08;;;;;;;11.32;4.22;;;11.00;96.70;;;;;;5065647;28;20045;-78
2022/02/21 07:58:36;;;;;;;6.95;3.55;;;11.00;96.70;;;;;;5064748;28;20067;-77
2022/02/21 08:01:04;;;;;;;7.78;3.92;;;10.90;96.70;;;;;;5065861;28;20055;-77
2022/02/21 08:03:37;;;;;;;7.80;3.20;;;10.90;96.70;;;;;;5068392;28;20035;-77
2022/02/21 08:06:06;;;;;;;9.95;3.50;;;10.90;96.70;;;;;;5064599;28;20049;-77
2022/02/21 08:08:34;;;;;;;7.00;3.30;;;11.00;96.70;;;;;;5065005;28;20651;-79
2022/02/21 08:11:02;;;;;;;11.40;3.05;;;11.10;96.70;;;;;;5062953;28;20505;-77
2022/02/21 08:13:32;;;;;;;7.13;3.00;;;11.20;96.70;;;;;;5066526;28;20059;-78
2022/02/21 08:16:00;;;;;;;6.53;3.13;;;11.30;96.70;;;;;;5063908;28;20090;-77
2022/02/21 08:18:29;;;;;;;6.95;3.58;;;11.30;96.70;;;;;;5062281;28;20395;-77
2022/02/21 08:20:58;;;;;;;6.80;3.33;;;11.30;96.70;;;;;;5061065;28;20040;-77
2022/02/21 08:23:27;;;;;;;5.10;3.33;;;11.30;96.70;;;;;;5080896;28;20044;-77
2022/02/21 08:25:59;;;;;;;7.03;3.55;;;11.30;96.70;;;;;;5063728;28;20043;-77
2022/02/21 08:28:28;;;;;;;9.48;4.30;;;11.40;96.70;;;;;;5066564;28;20479;-77
2022/02/21 08:30:56;;;;;;;8.93;4.57;;;11.40;96.70;;;;;;5061649;28;20684;-78
2022/02/21 08:33:25;;;;;;;10.98;5.00;;;11.40;96.70;;;;;;5049623;28;20521;-78
2022/02/21 08:35:53;;;;;;;9.60;4.78;;;11.50;96.70;;;;;;5062417;28;20393;-78
2022/02/21 08:38:23;;;;;;;11.32;5.18;;;11.60;96.70;;;;;;5077986;28;20121;-78
2022/02/21 08:40:52;;;;;;;7.90;4.15;;;11.60;96.70;;;;;;5070541;28;20040;-77
2022/02/21 08:43:25;;;;;;;8.43;4.07;;;11.60;96.70;;;;;;5063562;28;20049;-78
2022/02/21 08:45:54;;;;;;;9.32;4.00;;;11.60;96.70;;;;;;5064044;28;20547;-78
2022/02/21 08:48:23;;;;;;;7.80;4.10;;;11.60;96.70;;;;;;5063954;28;20123;-78
2022/02/21 08:50:51;;;;;;;9.63;3.50;;;11.70;96.70;;;;;;5063028;28;20075;-77
2022/02/21 08:53:20;;;;;;;7.68;3.80;;;11.70;96.70;;;;;;5079320;28;20055;-77
2022/02/21 08:55:49;;;;;;;8.02;3.78;;;11.80;96.70;;;;;;5094375;27;20118;-77
2022/02/21 08:58:17;;;;;;;7.05;4.00;;;11.80;96.70;;;;;;5078857;28;20047;-77
2022/02/21 09:00:46;;;;;;;8.23;4.00;;;11.90;96.70;;;;;;5063967;28;20044;-78
2022/02/21 09:03:18;;;;;;;6.88;4.28;;;11.90;96.70;;;;;;5065145;28;20489;-77
2022/02/21 09:05:49;;;;;;;8.88;3.95;;;12.00;96.70;;;;;;5065814;28;20040;-77
2022/02/21 09:08:17;;;;;;;7.30;3.33;;;12.00;96.70;;;;;;5066947;28;20119;-77
2022/02/21 09:10:49;;;;;;;7.93;4.20;;;11.90;96.70;;;;;;5067251;28;20049;-77
2022/02/21 09:13:18;;;;;;;7.80;4.22;;;12.00;96.70;;;;;;5064354;28;20434;-77
2022/02/21 09:15:46;;;;;;;8.52;3.95;;;12.00;96.70;;;;;;5094200;27;20043;-79
2022/02/21 09:18:15;;;;;;;9.93;4.75;;;12.00;96.70;;;;;;5062151;28;20056;-78
2022/02/21 09:20:43;;;;;;;11.40;4.55;;;11.90;96.70;;;;;;5066227;28;20080;-77
2022/02/21 09:23:12;;;;;;;11.98;4.80;;;12.00;96.70;;;;;;5061453;28;20424;-77
2022/02/21 09:25:41;;;;;;;14.93;8.02;;;12.00;96.70;;;;;;5063434;28;20059;-77
2022/02/21 09:28:11;;;;;;;17.48;9.23;;;12.00;96.70;;;;;;5065943;28;20236;-77
2022/02/21 09:30:39;;;;;;;15.15;8.40;;;11.90;96.70;;;;;;5061694;28;20043;-77
2022/02/21 09:33:07;;;;;;;13.30;7.50;;;11.90;96.70;;;;;;5047857;28;20121;-76
2022/02/21 09:35:35;;;;;;;10.13;6.32;;;12.00;96.70;;;;;;5064423;28;20056;-76
2022/02/21 09:38:03;;;;;;;12.57;6.85;;;11.90;96.70;;;;;;5063710;28;20154;-76
2022/02/21 09:40:32;;;;;;;14.68;7.35;;;11.80;96.70;;;;;;5079279;28;20211;-76
2022/02/21 09:43:00;;;;;;;12.70;7.60;;;11.80;96.70;;;;;;5064901;28;20048;-77
2022/02/21 09:45:30;;;;;;;11.75;7.07;;;11.80;96.70;;;;;;5044528;28;20040;-76
2022/02/21 09:47:59;;;;;;;15.32;7.60;;;11.80;96.70;;;;;;5060967;28;20099;-76
2022/02/21 09:50:36;;;;;;;16.27;7.38;;;11.80;96.70;;;;;;5067344;28;20076;-77
2022/02/21 09:53:04;;;;;;;9.77;6.38;;;11.80;96.70;;;;;;5064188;28;20536;-76
2022/02/21 09:55:33;;;;;;;7.28;5.13;;;11.80;96.70;;;;;;5047504;28;20051;-76
2022/02/21 09:58:03;;;;;;;9.95;5.00;;;11.70;96.70;;;;;;5063281;28;20049;-76
2022/02/21 10:00:32;;;;;;;8.75;5.00;;;11.70;96.70;;;;;;5044476;28;20036;-76
2022/02/21 10:03:01;;;;;;;10.02;4.82;;;11.70;96.70;;;;;;5061812;28;20117;-76
2022/02/21 10:05:30;;;;;;;16.73;5.03;;;11.60;96.70;;;;;;5064033;28;20163;-76
2022/02/21 10:08:00;;;;;;;15.57;5.10;;;11.70;96.70;;;;;;5063683;28;20512;-77
2022/02/21 10:10:28;;;;;;;10.15;6.03;;;11.80;96.70;;;;;;5048683;28;20063;-76
2022/02/21 10:12:58;;;;;;;15.57;5.20;;;12.00;96.70;;;;;;5047892;28;20055;-77
2022/02/21 10:15:28;;;;;;;16.73;4.80;;;12.00;96.70;;;;;;5048690;28;20045;-76
2022/02/21 10:18:11;;;;;;;17.35;4.95;;;12.10;96.70;;;;;;5061651;28;20432;-77
2022/02/21 10:20:54;;;;;;;23.15;4.97;;;12.20;96.70;;;;;;5058955;28;20036;-76
2022/02/21 10:23:23;;;;;;;22.20;3.95;;;12.50;96.70;;;;;;5042707;28;20052;-76
2022/02/21 10:25:55;;;;;;;19.83;3.58;;;12.80;96.70;;;;;;5060449;28;20052;-76
2022/02/21 10:28:26;;;;;;;18.38;4.35;;;13.10;96.70;;;;;;5043201;28;20052;-76
2022/02/21 10:31:15;;;;;;;27.45;4.35;;;13.30;96.70;;;;;;5043584;28;20048;-76
2022/02/21 10:34:00;;;;;;;21.83;3.20;;;13.50;96.70;;;;;;5044294;28;20048;-76
2022/02/21 10:36:30;;;;;;;21.77;4.30;;;13.60;96.70;;;;;;5041810;28;20503;-76
2022/02/21 10:38:59;;;;;;;17.00;3.60;;;13.60;96.70;;;;;;5030541;28;20085;-76
2022/02/21 10:41:52;;;;;;;13.85;3.45;;;13.70;96.70;;;;;;5060440;28;20138;-77
2022/02/21 10:44:28;;;;;;;18.13;3.83;;;13.80;96.70;;;;;;5052261;28;20052;-76
2022/02/21 10:47:12;;;;;;;16.85;3.50;;;13.90;96.70;;;;;;5064162;28;21098;-77
2022/02/21 10:49:54;;;;;;;15.32;3.22;;;14.00;96.70;;;;;;5063323;28;20040;-76
2022/02/21 10:52:24;;;;;;;19.35;3.30;;;14.20;96.70;;;;;;5060936;28;20040;-77
2022/02/21 10:54:52;;;;;;;19.73;4.95;;;14.20;96.70;;;;;;5077193;28;20045;-76
2022/02/21 10:57:28;;;;;;;20.10;3.33;;;14.20;96.70;;;;;;5075517;28;20143;-76
2022/02/21 10:59:57;;;;;;;15.00;3.60;;;14.30;96.70;;;;;;5077364;28;20043;-77
2022/02/21 11:02:25;;;;;;;14.98;3.08;;;14.30;96.70;;;;;;5060390;28;20578;-77
2022/02/21 11:04:56;;;;;;;19.73;3.05;;;14.50;96.70;;;;;;5054188;28;20037;-76
2022/02/21 11:07:26;;;;;;;15.35;2.83;;;14.80;96.70;;;;;;5078160;28;20040;-77
2022/02/21 11:09:59;;;;;;;16.02;2.97;;;14.80;96.70;;;;;;5059997;28;20498;-77
2022/02/21 11:12:33;;;;;;;15.55;3.20;;;14.90;96.70;;;;;;5060213;28;20056;-77
2022/02/21 11:15:02;;;;;;;11.52;2.72;;;15.10;96.70;;;;;;5059117;28;20045;-77
2022/02/21 11:17:30;;;;;;;11.55;3.25;;;15.30;96.70;;;;;;5066290;28;20040;-77
2022/02/21 11:20:00;;;;;;;15.15;3.42;;;15.30;96.70;;;;;;5063703;28;20131;-76
2022/02/21 11:22:28;;;;;;;13.52;3.50;;;15.00;96.70;;;;;;5063380;28;20216;-77
2022/02/21 11:25:05;;;;;;;16.17;3.38;;;14.70;96.70;;;;;;5065077;28;20056;-77
2022/02/21 11:27:44;;;;;;;14.52;3.30;;;14.70;96.70;;;;;;5061451;28;20509;-77
2022/02/21 11:30:16;;;;;;;14.00;3.63;;;14.60;96.70;;;;;;5067575;28;20560;-77
2022/02/21 11:33:01;;;;;;;11.23;3.25;;;14.60;96.70;;;;;;5100966;28;20064;-77
2022/02/21 11:35:30;;;;;;;19.90;3.83;;;14.80;96.70;;;;;;5056502;28;20045;-77
2022/02/21 11:38:15;;;;;;;10.40;3.05;;;15.20;96.70;;;;;;5068896;28;20121;-76
2022/02/21 11:40:52;;;;;;;19.67;3.40;;;15.10;96.70;;;;;;5062606;28;20051;-77
2022/02/21 11:43:31;;;;;;;19.17;3.88;;;15.00;96.70;;;;;;5061091;28;20047;-77
2022/02/21 11:46:03;;;;;;;14.38;3.45;;;14.80;96.70;;;;;;5044880;28;20288;-76
2022/02/21 11:48:55;;;;;;;20.38;3.70;;;15.10;96.70;;;;;;5048478;28;20055;-76
2022/02/21 11:51:30;;;;;;;12.35;3.03;;;15.00;96.70;;;;;;5069508;28;20087;-76
2022/02/21 11:54:32;;;;;;;13.43;3.10;;;14.80;96.70;;;;;;5042189;28;20076;-76
2022/02/21 11:57:04;;;;;;;20.42;4.13;;;14.50;96.70;;;;;;5059259;28;20364;-76
2022/02/21 11:59:35;;;;;;;21.13;3.50;;;14.40;96.70;;;;;;5060161;28;20086;-76
2022/02/21 12:02:12;;;;;;;18.00;3.75;;;14.30;96.70;;;;;;5046820;28;20766;-75
2022/02/21 12:04:49;;;;;;;19.90;3.10;;;14.40;96.70;;;;;;5047533;28;20044;-76
2022/02/21 12:07:26;;;;;;;17.02;3.10;;;14.60;96.70;;;;;;5065522;28;20044;-75
2022/02/21 12:10:12;;;;;;;16.98;2.95;;;14.80;96.70;;;;;;5061972;28;20418;-73
2022/02/21 12:12:59;;;;;;;15.55;3.30;;;14.90;96.70;;;;;;5048303;28;20036;-73
2022/02/21 12:15:30;;;;;;;15.05;2.80;;;14.70;96.70;;;;;;5036946;28;20053;-73
2022/02/21 12:18:02;;;;;;;13.20;2.60;;;14.60;96.70;;;;;;5065614;28;20040;-73
2022/02/21 12:20:35;;;;;;;11.48;2.47;;;14.50;96.70;;;;;;5063729;28;20044;-74
2022/02/21 12:23:18;;;;;;;26.38;3.17;;;14.40;96.70;;;;;;5063414;28;20646;-73
2022/02/21 12:26:14;;;;;;;18.77;4.00;;;14.40;96.70;;;;;;5064114;28;20044;-73
2022/02/21 12:28:43;;;;;;;13.10;3.42;;;14.40;96.70;;;;;;5060860;28;20036;-73
2022/02/21 12:31:23;;;;;;;15.38;3.10;;;14.30;96.70;;;;;;5063068;28;20140;-73
2022/02/21 12:33:57;;;;;;;19.10;4.15;;;14.30;96.70;;;;;;5053156;28;20512;-73
2022/02/21 12:36:32;;;;;;;16.45;3.63;;;14.20;96.70;;;;;;5065834;28;20532;-73
2022/02/21 12:39:06;;;;;;;17.33;3.90;;;14.20;96.70;;;;;;5035960;28;20091;-74
2022/02/21 12:41:36;;;;;;;13.90;2.90;;;14.20;96.70;;;;;;5069388;28;20044;-73
2022/02/21 12:44:07;;;;;;;19.00;4.32;;;14.20;96.70;;;;;;5077511;28;20057;-73
2022/02/21 12:46:37;;;;;;;15.07;3.10;;;14.30;96.70;;;;;;5045248;28;20049;-73
2022/02/21 12:49:07;;;;;;;17.80;3.40;;;14.30;96.70;;;;;;5062944;28;20122;-73
2022/02/21 12:51:37;;;;;;;18.25;3.42;;;14.30;96.70;;;;;;5096812;27;20582;-73
2022/02/21 12:54:08;;;;;;;18.25;3.97;;;14.30;96.70;;;;;;5064524;28;20040;-74
2022/02/21 12:56:48;;;;;;;17.67;3.08;;;14.20;96.70;;;;;;5063479;28;20040;-74
2022/02/21 12:59:18;;;;;;;13.20;2.60;;;14.20;96.70;;;;;;5093532;27;20504;-75